Time;durP1;ratioP1;P1;durP2;ratioP2;P2;SDS_P1;SDS_P2;PMS_P1;PMS_P2;Temp;Humidity;BMP_temperature;BMP_pressure;BME280_temperature;BME280_humidity;BME280_pressure;Samples;Min_cycle;Max_cycle;Signal;HPM_P1;HPM_P2
2021/12/27 00:02:16;;;;;;;;;;;19.20;99.90;;;;;;5055667;28;19936;-70
2021/12/27 00:04:44;;;;;;;;;;;19.20;99.90;;;;;;5055629;28;19909;-70
2021/12/27 00:07:10;;;;;;;;;;;19.20;99.90;;;;;;5055359;28;19908;-71
2021/12/27 00:09:39;;;;;;;;;;;19.20;99.90;;;;;;5054864;28;19970;-71
2021/12/27 00:12:06;;;;;;;;;;;19.30;99.90;;;;;;5055200;28;20383;-70
2021/12/27 00:14:32;;;;;;;;;;;19.40;99.90;;;;;;5055576;28;19967;-70
2021/12/27 00:16:59;;;;;;;;;;;19.40;99.90;;;;;;5055572;28;19992;-70
2021/12/27 00:19:26;;;;;;;;;;;19.40;99.90;;;;;;5055339;28;19909;-70
2021/12/27 00:21:53;;;;;;;;;;;19.60;99.90;;;;;;5055001;28;19992;-70
2021/12/27 00:24:19;;;;;;;;;;;19.70;99.90;;;;;;5054667;28;19954;-70
2021/12/27 00:26:48;;;;;;;;;;;19.70;99.90;;;;;;5055168;28;19999;-70
2021/12/27 00:29:15;;;;;;;;;;;19.80;99.90;;;;;;5055180;28;20364;-70
2021/12/27 00:31:43;;;;;;;;;;;19.90;99.90;;;;;;5055103;28;19920;-70
2021/12/27 00:34:09;;;;;;;;;;;19.90;99.90;;;;;;5054920;28;19924;-70
2021/12/27 00:36:36;;;;;;;;;;;19.90;99.90;;;;;;5055137;28;20440;-70
2021/12/27 00:39:03;;;;;;;;;;;20.00;99.90;;;;;;5054475;28;20042;-70
2021/12/27 00:41:30;;;;;;;;;;;20.00;99.90;;;;;;5055030;28;19971;-70
2021/12/27 00:43:56;;;;;;;;;;;19.90;99.90;;;;;;5054624;28;20382;-70
2021/12/27 00:46:23;;;;;;;;;;;19.80;99.90;;;;;;5054919;28;19913;-70
2021/12/27 00:48:49;;;;;;;;;;;19.90;99.90;;;;;;5054789;28;19909;-70
2021/12/27 00:51:16;;;;;;;;;;;19.90;99.90;;;;;;5054525;28;19919;-70
2021/12/27 00:53:43;;;;;;;;;;;20.00;99.90;;;;;;5054134;28;20073;-70
2021/12/27 00:56:09;;;;;;;;;;;20.10;99.90;;;;;;5054574;28;19912;-70
2021/12/27 00:58:36;;;;;;;;;;;20.00;99.90;;;;;;5054672;28;20005;-71
2021/12/27 01:01:03;;;;;;;;;;;20.10;99.90;;;;;;5054619;28;20405;-70
2021/12/27 01:03:29;;;;;;;;;;;20.20;99.90;;;;;;5054098;28;20409;-71
2021/12/27 01:05:56;;;;;;;;;;;20.30;99.90;;;;;;5054273;28;19917;-70
2021/12/27 01:08:23;;;;;;;;;;;20.40;99.90;;;;;;5053925;28;20322;-70
2021/12/27 01:11:10;;;;;;;;;;;20.30;99.90;;;;;;5054259;28;19920;-71
2021/12/27 01:13:41;;;;;;;;;;;20.20;99.90;;;;;;5054316;28;19916;-70
2021/12/27 01:18:35;;;;;;;;;;;20.20;99.90;;;;;;5054213;28;20438;-70
2021/12/27 01:21:02;;;;;;;;;;;20.20;99.90;;;;;;5054306;28;19908;-71
2021/12/27 01:23:29;;;;;;;;;;;20.30;99.90;;;;;;5053688;28;20339;-71
2021/12/27 01:25:56;;;;;;;;;;;20.20;99.90;;;;;;5053885;28;20275;-71
2021/12/27 01:28:22;;;;;;;;;;;20.30;99.90;;;;;;5054051;28;19916;-70
2021/12/27 01:30:50;;;;;;;;;;;20.40;99.90;;;;;;5054036;28;19909;-71
2021/12/27 01:33:18;;;;;;;;;;;20.30;99.90;;;;;;5053976;28;19920;-71
2021/12/27 01:35:45;;;;;;;;;;;20.30;99.90;;;;;;5053932;28;19956;-71
2021/12/27 01:38:13;;;;;;;;;;;20.30;99.90;;;;;;5053087;28;19974;-71
2021/12/27 01:40:41;;;;;;;;;;;20.30;99.90;;;;;;5053968;28;19916;-71
2021/12/27 01:43:13;;;;;;;;;;;20.40;99.90;;;;;;5053765;28;20244;-71
2021/12/27 01:45:41;;;;;;;;;;;20.40;99.90;;;;;;5053749;28;20404;-71
2021/12/27 01:48:09;;;;;;;;;;;20.40;99.90;;;;;;5053564;28;19920;-71
2021/12/27 01:50:37;;;;;;;;;;;20.50;99.90;;;;;;5053845;28;19991;-70
2021/12/27 01:53:04;;;;;;;;;;;20.50;99.90;;;;;;5052864;28;20013;-71
2021/12/27 01:55:30;;;;;;;;;;;20.60;99.90;;;;;;5053484;28;19916;-71
2021/12/27 01:57:57;;;;;;;;;;;20.70;99.90;;;;;;5053267;28;19908;-70
2021/12/27 02:00:24;;;;;;;;;;;20.70;99.90;;;;;;5053372;28;19909;-71
2021/12/27 02:02:51;;;;;;;;;;;20.80;99.90;;;;;;5053539;28;20380;-70
2021/12/27 02:05:18;;;;;;;;;;;20.90;99.90;;;;;;5053452;28;19999;-70
2021/12/27 02:07:44;;;;;;;;;;;20.80;99.90;;;;;;5052602;28;20000;-70
2021/12/27 02:10:11;;;;;;;;;;;20.80;99.90;;;;;;5053039;28;20384;-70
2021/12/27 02:12:39;;;;;;;;;;;20.80;99.90;;;;;;5053079;28;19915;-71
2021/12/27 02:15:09;;;;;;;;;;;20.80;99.90;;;;;;5052512;28;19939;-71
2021/12/27 02:17:40;;;;;;;;;;;20.70;99.90;;;;;;5053167;28;19966;-70
2021/12/27 02:20:08;;;;;;;;;;;20.80;99.90;;;;;;5052930;28;19913;-71
2021/12/27 02:22:36;;;;;;;;;;;20.90;99.90;;;;;;5052910;28;19909;-70
2021/12/27 02:25:07;;;;;;;;;;;20.90;99.90;;;;;;5052696;28;19956;-70
2021/12/27 02:27:34;;;;;;;;;;;20.80;99.90;;;;;;5053062;28;19915;-70
2021/12/27 02:30:01;;;;;;;;;;;20.80;99.90;;;;;;5052840;28;20394;-70
2021/12/27 02:32:28;;;;;;;;;;;20.90;99.90;;;;;;5052934;28;19954;-71
2021/12/27 02:34:55;;;;;;;;;;;20.90;99.90;;;;;;5085051;28;19916;-70
2021/12/27 02:37:21;;;;;;;;;;;20.90;99.90;;;;;;5052699;28;20035;-70
2021/12/27 02:39:48;;;;;;;;;;;20.90;99.90;;;;;;5052599;28;19975;-70
2021/12/27 02:42:18;;;;;;;;;;;21.00;99.90;;;;;;5052816;28;19908;-70
2021/12/27 02:44:45;;;;;;;;;;;21.00;99.90;;;;;;5052858;28;19996;-70
2021/12/27 02:47:14;;;;;;;;;;;20.90;99.90;;;;;;5052786;28;19909;-70
2021/12/27 02:49:40;;;;;;;;;;;20.90;99.90;;;;;;5084662;28;20389;-70
2021/12/27 02:52:07;;;;;;;;;;;20.80;99.90;;;;;;5052258;28;19958;-70
2021/12/27 02:54:34;;;;;;;;;;;20.70;99.90;;;;;;5052538;28;19924;-70
2021/12/27 02:57:00;;;;;;;;;;;20.70;99.90;;;;;;5052746;28;20011;-70
2021/12/27 02:59:27;;;;;;;;;;;20.80;99.90;;;;;;5052579;28;19908;-70
2021/12/27 03:01:54;;;;;;;;;;;20.80;99.90;;;;;;5051958;28;19909;-71
2021/12/27 03:04:20;;;;;;;;;;;20.80;99.90;;;;;;5052482;28;20011;-71
2021/12/27 03:06:47;;;;;;;;;;;20.70;99.90;;;;;;5052270;28;19909;-70
2021/12/27 03:09:14;;;;;;;;;;;20.70;99.90;;;;;;5052397;28;20275;-70
2021/12/27 03:11:40;;;;;;;;;;;20.70;99.90;;;;;;5052246;28;19921;-70
2021/12/27 03:14:07;;;;;;;;;;;20.70;99.90;;;;;;5051886;28;19971;-70
2021/12/27 03:16:34;;;;;;;;;;;20.80;99.90;;;;;;5052506;28;19909;-70
2021/12/27 03:19:01;;;;;;;;;;;20.80;99.90;;;;;;5052459;28;19944;-70
2021/12/27 03:21:28;;;;;;;;;;;20.80;99.90;;;;;;5052152;28;20317;-70
2021/12/27 03:23:55;;;;;;;;;;;20.90;99.90;;;;;;5052266;28;19916;-70
2021/12/27 03:26:22;;;;;;;;;;;20.80;99.90;;;;;;5054720;28;19909;-70
2021/12/27 03:28:49;;;;;;;;;;;20.70;99.90;;;;;;5056468;28;19917;-69
2021/12/27 03:31:16;;;;;;;;;;;20.60;99.90;;;;;;5056325;28;19935;-70
2021/12/27 03:33:42;;;;;;;;;;;20.50;99.90;;;;;;5056217;28;19985;-70
2021/12/27 03:36:09;;;;;;;;;;;20.50;99.90;;;;;;5055976;28;20383;-70
2021/12/27 03:38:36;;;;;;;;;;;20.60;99.90;;;;;;5056362;28;19916;-70
2021/12/27 03:41:04;;;;;;;;;;;20.50;99.90;;;;;;5056112;28;19944;-70
2021/12/27 03:43:30;;;;;;;;;;;20.50;99.90;;;;;;5056211;28;20007;-70
2021/12/27 03:45:57;;;;;;;;;;;20.50;99.90;;;;;;5060662;28;19913;-70
2021/12/27 03:48:24;;;;;;;;;;;20.50;99.90;;;;;;5056479;28;20359;-70
2021/12/27 03:50:50;;;;;;;;;;;20.40;99.90;;;;;;5056091;28;19913;-70
2021/12/27 03:53:17;;;;;;;;;;;20.40;99.90;;;;;;5056391;28;19952;-70
2021/12/27 03:55:44;;;;;;;;;;;20.40;99.90;;;;;;5056362;28;19917;-71
2021/12/27 03:58:23;;;;;;;;;;;20.30;99.90;;;;;;5055951;28;19909;-71
2021/12/27 04:03:23;;;;;;;;;;;20.50;99.90;;;;;;5055935;28;19909;-71
2021/12/27 04:05:49;;;;;;;;;;;20.50;99.90;;;;;;5055635;28;19944;-71
2021/12/27 04:08:18;;;;;;;;;;;20.60;99.90;;;;;;5055779;28;20463;-71
2021/12/27 04:10:45;;;;;;;;;;;20.70;99.90;;;;;;5055510;28;20266;-70
2021/12/27 04:13:12;;;;;;;;;;;20.60;99.90;;;;;;5056025;28;19924;-71
2021/12/27 04:15:39;;;;;;;;;;;20.70;99.90;;;;;;5055434;28;19917;-71
2021/12/27 04:18:09;;;;;;;;;;;20.70;99.90;;;;;;5055324;28;19939;-71
2021/12/27 04:20:36;;;;;;;;;;;20.90;99.90;;;;;;5055420;28;19909;-71
2021/12/27 04:23:02;;;;;;;;;;;21.00;99.90;;;;;;5055455;28;19913;-71
2021/12/27 04:25:29;;;;;;;;;;;21.00;99.90;;;;;;5054930;28;20381;-71
2021/12/27 04:27:56;;;;;;;;;;;20.90;99.90;;;;;;5055013;28;19909;-71
2021/12/27 04:30:22;;;;;;;;;;;20.70;99.90;;;;;;5055161;28;19913;-70
2021/12/27 04:32:50;;;;;;;;;;;20.90;99.90;;;;;;5055109;28;19909;-70
2021/12/27 04:35:17;;;;;;;;;;;20.90;99.90;;;;;;5054668;28;20425;-71
2021/12/27 04:37:44;;;;;;;;;;;21.00;99.90;;;;;;5054353;28;20007;-71
2021/12/27 04:40:11;;;;;;;;;;;21.00;99.90;;;;;;5054851;28;19995;-70
2021/12/27 04:42:39;;;;;;;;;;;21.10;99.90;;;;;;5054597;28;19909;-71
2021/12/27 04:45:06;;;;;;;;;;;21.20;99.90;;;;;;5054942;28;19908;-71
2021/12/27 04:47:34;;;;;;;;;;;21.20;99.90;;;;;;5054428;28;19908;-71
2021/12/27 04:50:00;;;;;;;;;;;21.30;99.90;;;;;;5054381;28;19916;-71
2021/12/27 04:52:27;;;;;;;;;;;21.10;99.90;;;;;;5054824;28;19959;-70
2021/12/27 04:54:54;;;;;;;;;;;21.10;99.90;;;;;;5054597;28;19939;-70
2021/12/27 04:57:20;;;;;;;;;;;20.90;99.90;;;;;;5054589;28;19909;-70
2021/12/27 04:59:47;;;;;;;;;;;20.90;99.90;;;;;;5054260;28;19913;-70
2021/12/27 05:02:14;;;;;;;;;;;20.70;99.90;;;;;;5054313;28;19913;-70
2021/12/27 05:04:41;;;;;;;;;;;20.80;99.90;;;;;;5054212;28;19947;-70
2021/12/27 05:07:07;;;;;;;;;;;20.90;99.90;;;;;;5054307;28;19909;-70
2021/12/27 05:09:34;;;;;;;;;;;21.00;99.90;;;;;;5053903;28;20367;-70
2021/12/27 05:12:00;;;;;;;;;;;20.80;99.90;;;;;;5054033;28;19917;-70
2021/12/27 05:14:27;;;;;;;;;;;20.80;99.90;;;;;;5054093;28;19913;-70
2021/12/27 05:16:54;;;;;;;;;;;20.50;99.90;;;;;;5054414;28;19996;-72
2021/12/27 05:19:21;;;;;;;;;;;19.70;99.90;;;;;;5054337;28;20363;-73
2021/12/27 05:21:47;;;;;;;;;;;19.30;99.90;;;;;;5053732;28;20267;-73
2021/12/27 05:24:14;;;;;;;;;;;18.90;99.90;;;;;;5053823;28;19989;-73
2021/12/27 05:26:40;;;;;;;;;;;18.80;99.90;;;;;;5053918;28;19932;-72
2021/12/27 05:29:07;;;;;;;;;;;18.80;99.90;;;;;;5053798;28;19962;-72
2021/12/27 05:31:34;;;;;;;;;;;18.60;99.90;;;;;;5053857;28;19916;-72
2021/12/27 05:34:01;;;;;;;;;;;18.50;99.90;;;;;;5053520;28;19913;-72
2021/12/27 05:36:27;;;;;;;;;;;18.50;99.90;;;;;;5053555;28;19946;-72
2021/12/27 05:38:54;;;;;;;;;;;18.60;99.90;;;;;;5053779;28;19919;-72
2021/12/27 05:41:21;;;;;;;;;;;18.30;99.90;;;;;;5053693;28;19913;-72
2021/12/27 05:43:47;;;;;;;;;;;18.10;99.90;;;;;;5053475;28;19908;-72
2021/12/27 05:46:14;;;;;;;;;;;17.90;99.90;;;;;;5053703;28;19909;-72
2021/12/27 05:48:41;;;;;;;;;;;17.90;99.90;;;;;;5052850;28;20228;-72
2021/12/27 05:51:08;;;;;;;;;;;17.70;99.90;;;;;;5051895;28;19909;-72
2021/12/27 05:53:35;;;;;;;;;;;17.80;99.90;;;;;;5051450;28;19908;-72
2021/12/27 05:56:02;;;;;;;;;;;17.90;99.90;;;;;;5051419;28;19924;-72
2021/12/27 05:58:29;;;;;;;;;;;18.10;99.90;;;;;;5051565;28;19988;-72
2021/12/27 06:00:55;;;;;;;;;;;18.20;99.90;;;;;;5051299;28;20252;-72
2021/12/27 06:03:22;;;;;;;;;;;18.20;99.90;;;;;;5051219;28;19912;-72
2021/12/27 06:05:49;;;;;;;;;;;18.20;99.90;;;;;;5050329;28;19913;-72
2021/12/27 06:08:15;;;;;;;;;;;18.20;99.90;;;;;;5051114;28;19913;-72
2021/12/27 06:10:51;;;;;;;;;;;18.20;99.90;;;;;;5108050;27;19934;-72
2021/12/27 06:13:18;;;;;;;;;;;18.10;99.90;;;;;;5108382;28;19919;-72
2021/12/27 06:15:44;;;;;;;;;;;18.10;99.90;;;;;;5108066;28;19908;-72
2021/12/27 06:18:11;;;;;;;;;;;17.90;99.90;;;;;;5108002;28;20007;-72
2021/12/27 06:20:38;;;;;;;;;;;18.00;99.90;;;;;;5107743;28;20473;-72
2021/12/27 06:23:04;;;;;;;;;;;18.00;99.90;;;;;;5108346;28;19912;-73
2021/12/27 06:25:31;;;;;;;;;;;18.00;99.90;;;;;;5108104;28;20391;-73
2021/12/27 06:27:58;;;;;;;;;;;17.90;99.90;;;;;;5107564;28;20302;-72
2021/12/27 06:30:24;;;;;;;;;;;17.70;99.90;;;;;;5107495;28;20050;-72
2021/12/27 06:32:51;;;;;;;;;;;17.70;99.90;;;;;;5107967;28;19919;-72
2021/12/27 06:35:18;;;;;;;;;;;17.70;99.90;;;;;;5107713;28;19936;-72
2021/12/27 06:37:45;;;;;;;;;;;17.60;99.90;;;;;;5107855;28;19908;-72
2021/12/27 06:40:13;;;;;;;;;;;17.70;99.90;;;;;;5107925;28;19908;-72
2021/12/27 06:42:39;;;;;;;;;;;17.70;99.90;;;;;;5107979;28;19917;-72
2021/12/27 06:45:07;;;;;;;;;;;17.70;99.90;;;;;;5107460;28;19908;-72
2021/12/27 06:47:33;;;;;;;;;;;17.70;99.90;;;;;;5107755;28;19916;-72
2021/12/27 06:50:00;;;;;;;;;;;17.60;99.90;;;;;;5107217;28;19916;-72
2021/12/27 06:52:27;;;;;;;;;;;17.60;99.90;;;;;;5107566;28;20027;-72
2021/12/27 06:54:53;;;;;;;;;;;17.60;99.90;;;;;;5107646;28;19915;-72
2021/12/27 06:57:20;;;;;;;;;;;17.70;99.90;;;;;;5107245;28;19908;-72
2021/12/27 06:59:47;;;;;;;;;;;17.70;99.90;;;;;;5107272;28;19912;-72
2021/12/27 07:02:13;;;;;;;;;;;17.70;99.90;;;;;;5107462;28;20071;-72
2021/12/27 07:04:40;;;;;;;;;;;17.80;99.90;;;;;;5107559;28;20048;-72
2021/12/27 07:07:07;;;;;;;;;;;17.80;99.90;;;;;;5107446;28;20004;-72
2021/12/27 07:09:33;;;;;;;;;;;17.70;99.90;;;;;;5106635;28;19920;-72
2021/12/27 07:12:00;;;;;;;;;;;17.60;99.90;;;;;;5107064;28;20011;-72
2021/12/27 07:14:27;;;;;;;;;;;17.60;99.90;;;;;;5106971;28;19908;-72
2021/12/27 07:16:53;;;;;;;;;;;17.60;99.90;;;;;;5107142;28;19969;-72
2021/12/27 07:19:20;;;;;;;;;;;17.80;99.90;;;;;;5106901;28;20260;-72
2021/12/27 07:21:47;;;;;;;;;;;17.80;99.90;;;;;;5095914;28;19919;-72
2021/12/27 07:24:13;;;;;;;;;;;17.70;99.90;;;;;;5087548;28;19916;-72
2021/12/27 07:26:40;;;;;;;;;;;17.60;99.90;;;;;;5073097;28;20390;-72
2021/12/27 07:29:06;;;;;;;;;;;17.80;99.90;;;;;;5072959;28;19922;-72
2021/12/27 07:31:33;;;;;;;;;;;17.80;99.90;;;;;;5072489;28;20363;-72
2021/12/27 07:34:01;;;;;;;;;;;17.80;99.90;;;;;;5072730;28;20336;-72
2021/12/27 07:36:30;;;;;;;;;;;17.80;99.90;;;;;;5072851;28;19915;-72
2021/12/27 07:38:57;;;;;;;;;;;17.70;99.90;;;;;;5071276;28;19953;-72
2021/12/27 07:41:24;;;;;;;;;;;17.70;99.90;;;;;;5072629;28;19952;-72
2021/12/27 07:43:51;;;;;;;;;;;17.70;99.90;;;;;;5072408;28;19913;-72
2021/12/27 07:46:18;;;;;;;;;;;17.70;99.90;;;;;;5072697;28;20379;-72
2021/12/27 07:48:44;;;;;;;;;;;17.60;99.90;;;;;;5072721;28;20011;-72
2021/12/27 07:51:11;;;;;;;;;;;17.60;99.90;;;;;;5072317;28;19944;-72
2021/12/27 07:53:37;;;;;;;;;;;17.70;99.90;;;;;;5072599;28;19956;-73
2021/12/27 07:56:06;;;;;;;;;;;17.70;99.90;;;;;;5072339;28;19908;-72
2021/12/27 07:58:32;;;;;;;;;;;17.80;99.90;;;;;;5072309;28;19913;-72
2021/12/27 08:00:59;;;;;;;;;;;17.70;99.90;;;;;;5071957;28;19908;-72
2021/12/27 08:03:26;;;;;;;;;;;17.70;99.90;;;;;;5071955;28;19909;-72
2021/12/27 08:05:52;;;;;;;;;;;17.80;99.90;;;;;;5073222;28;20290;-72
2021/12/27 08:08:19;;;;;;;;;;;17.90;99.90;;;;;;5074414;28;19908;-72
2021/12/27 08:10:46;;;;;;;;;;;17.70;99.90;;;;;;5074194;28;20306;-72
2021/12/27 08:13:13;;;;;;;;;;;17.70;99.90;;;;;;5074131;28;19916;-72
2021/12/27 08:15:39;;;;;;;;;;;17.70;99.90;;;;;;5074383;28;19909;-72
2021/12/27 08:18:06;;;;;;;;;;;17.60;99.90;;;;;;5073786;28;20011;-72
2021/12/27 08:20:33;;;;;;;;;;;17.60;99.90;;;;;;5074229;28;19931;-72
2021/12/27 08:23:00;;;;;;;;;;;17.50;99.90;;;;;;5074180;28;19909;-72
2021/12/27 08:25:26;;;;;;;;;;;17.50;99.90;;;;;;5083880;28;19909;-72
2021/12/27 08:27:53;;;;;;;;;;;17.30;99.90;;;;;;5089478;28;20278;-72
2021/12/27 08:30:20;;;;;;;;;;;17.40;99.90;;;;;;5073897;28;19923;-72
2021/12/27 08:32:47;;;;;;;;;;;17.50;99.90;;;;;;5073073;28;19939;-72
2021/12/27 08:35:14;;;;;;;;;;;17.50;99.90;;;;;;5073551;28;19908;-72
2021/12/27 08:37:41;;;;;;;;;;;17.60;99.90;;;;;;5073660;28;20405;-72
2021/12/27 08:40:08;;;;;;;;;;;17.50;99.90;;;;;;5073613;28;20018;-72
2021/12/27 08:42:34;;;;;;;;;;;17.60;99.90;;;;;;5073696;28;19916;-72
2021/12/27 08:45:03;;;;;;;;;;;17.60;99.90;;;;;;5073818;28;20289;-72
2021/12/27 08:47:30;;;;;;;;;;;17.50;99.90;;;;;;5073694;28;19908;-72
2021/12/27 08:49:57;;;;;;;;;;;17.50;99.90;;;;;;5073230;28;19916;-72
2021/12/27 08:52:24;;;;;;;;;;;17.50;99.90;;;;;;5073653;28;19908;-72
2021/12/27 08:54:50;;;;;;;;;;;17.50;99.90;;;;;;5073381;28;20253;-72
2021/12/27 08:57:17;;;;;;;;;;;17.50;99.90;;;;;;5073488;28;19915;-72
2021/12/27 08:59:43;;;;;;;;;;;17.60;99.90;;;;;;5073438;28;19908;-72
2021/12/27 09:02:10;;;;;;;;;;;17.60;99.90;;;;;;5073228;28;19931;-72
2021/12/27 09:04:37;;;;;;;;;;;17.50;99.90;;;;;;5073151;28;19908;-72
2021/12/27 09:07:04;;;;;;;;;;;17.30;99.90;;;;;;5073426;28;19997;-73
2021/12/27 09:09:31;;;;;;;;;;;17.30;99.90;;;;;;5073135;28;19924;-72
2021/12/27 09:11:59;;;;;;;;;;;17.20;99.90;;;;;;5072914;28;19931;-72
2021/12/27 09:14:26;;;;;;;;;;;17.50;99.90;;;;;;5073222;28;19909;-73
2021/12/27 09:16:53;;;;;;;;;;;17.60;99.90;;;;;;5073060;28;19915;-72
2021/12/27 09:19:19;;;;;;;;;;;17.70;99.90;;;;;;5072891;28;19908;-73
2021/12/27 09:21:46;;;;;;;;;;;17.70;99.90;;;;;;5072730;28;19908;-73
2021/12/27 09:24:13;;;;;;;;;;;17.80;99.90;;;;;;5073021;28;20270;-72
2021/12/27 09:26:40;;;;;;;;;;;17.70;99.90;;;;;;5072929;28;19908;-73
2021/12/27 09:29:07;;;;;;;;;;;17.60;99.90;;;;;;5073039;28;19913;-75
2021/12/27 09:31:34;;;;;;;;;;;17.40;99.90;;;;;;5072997;28;20279;-73
2021/12/27 09:34:01;;;;;;;;;;;17.30;99.90;;;;;;5072530;28;20360;-73
2021/12/27 09:36:28;;;;;;;;;;;17.10;99.90;;;;;;5072812;28;20367;-73
2021/12/27 09:38:55;;;;;;;;;;;17.10;99.90;;;;;;5072816;28;20369;-72
2021/12/27 09:41:22;;;;;;;;;;;17.10;99.90;;;;;;5072849;28;20003;-73
2021/12/27 09:43:48;;;;;;;;;;;17.10;99.90;;;;;;5072410;28;19909;-74
2021/12/27 09:46:15;;;;;;;;;;;17.10;99.90;;;;;;5072728;28;20275;-74
2021/12/27 09:48:42;;;;;;;;;;;17.10;99.90;;;;;;5072643;28;20011;-73
2021/12/27 09:51:10;;;;;;;;;;;17.00;99.90;;;;;;5072625;28;19923;-74
2021/12/27 09:53:38;;;;;;;;;;;16.90;99.90;;;;;;5072700;28;20435;-73
2021/12/27 09:56:11;;;;;;;;;;;16.90;99.90;;;;;;5072625;28;19919;-73
2021/12/27 09:58:38;;;;;;;;;;;16.80;99.90;;;;;;5072599;28;19916;-73
2021/12/27 10:01:06;;;;;;;;;;;16.90;99.90;;;;;;5072537;28;19954;-74
2021/12/27 10:03:46;;;;;;;;;;;16.90;99.90;;;;;;5072343;28;19908;-74
2021/12/27 10:06:13;;;;;;;;;;;16.90;99.90;;;;;;5072838;28;20001;-74
2021/12/27 10:08:43;;;;;;;;;;;16.90;99.90;;;;;;5104883;28;19916;-73
2021/12/27 10:11:15;;;;;;;;;;;16.90;99.90;;;;;;5072545;28;19931;-74
2021/12/27 10:13:56;;;;;;;;;;;17.10;99.90;;;;;;5072507;28;20274;-74
2021/12/27 10:16:22;;;;;;;;;;;17.00;99.90;;;;;;5072337;28;19913;-74
2021/12/27 10:18:53;;;;;;;;;;;17.00;99.90;;;;;;5072269;28;19912;-74
2021/12/27 10:21:19;;;;;;;;;;;17.00;99.90;;;;;;5072481;28;19916;-74
2021/12/27 10:23:46;;;;;;;;;;;17.00;99.90;;;;;;5072475;28;19909;-74
2021/12/27 10:26:19;;;;;;;;;;;17.10;99.90;;;;;;5072412;28;20000;-74
2021/12/27 10:28:45;;;;;;;;;;;17.10;99.90;;;;;;5072455;28;19909;-74
2021/12/27 10:31:12;;;;;;;;;;;17.20;99.90;;;;;;5072282;28;19987;-74
2021/12/27 10:33:40;;;;;;;;;;;17.30;99.90;;;;;;5072323;28;20012;-74
2021/12/27 10:36:07;;;;;;;;;;;17.40;99.90;;;;;;5072081;28;19920;-74
2021/12/27 10:38:36;;;;;;;;;;;17.40;99.90;;;;;;5072128;28;19949;-74
2021/12/27 10:41:10;;;;;;;;;;;17.20;99.90;;;;;;5072192;28;19951;-74
2021/12/27 10:43:39;;;;;;;;;;;17.10;99.90;;;;;;5072374;28;19909;-74
2021/12/27 10:46:10;;;;;;;;;;;17.10;99.90;;;;;;5071939;28;19908;-74
2021/12/27 10:48:38;;;;;;;;;;;17.00;99.90;;;;;;5071920;28;19909;-74
2021/12/27 10:51:05;;;;;;;;;;;17.10;99.90;;;;;;5071960;28;20003;-74
2021/12/27 10:53:48;;;;;;;;;;;17.10;99.90;;;;;;5072093;28;20375;-74
2021/12/27 10:56:16;;;;;;;;;;;17.10;99.90;;;;;;5073050;28;20251;-75
2021/12/27 10:58:51;;;;;;;;;;;17.10;99.90;;;;;;5095901;28;20114;-74
2021/12/27 11:01:20;;;;;;;;;;;17.20;99.90;;;;;;5093038;28;20343;-75
2021/12/27 11:03:47;;;;;;;;;;;17.20;99.90;;;;;;5093507;28;20317;-74
2021/12/27 11:06:17;;;;;;;;;;;17.20;99.90;;;;;;5093867;28;19912;-74
2021/12/27 11:08:45;;;;;;;;;;;17.10;99.90;;;;;;5093473;28;19932;-74
2021/12/27 11:11:12;;;;;;;;;;;17.00;99.90;;;;;;5093185;28;19962;-74
2021/12/27 11:13:39;;;;;;;;;;;17.00;99.90;;;;;;5093288;28;19908;-75
2021/12/27 11:16:06;;;;;;;;;;;16.90;99.90;;;;;;5093318;28;20022;-75
2021/12/27 11:18:34;;;;;;;;;;;16.90;99.90;;;;;;5093186;28;19908;-74
2021/12/27 11:21:02;;;;;;;;;;;16.90;99.90;;;;;;5093331;28;20355;-74
2021/12/27 11:23:30;;;;;;;;;;;16.90;99.90;;;;;;5093282;28;19909;-75
2021/12/27 11:26:07;;;;;;;;;;;16.90;99.90;;;;;;5092427;28;19994;-74
2021/12/27 11:28:39;;;;;;;;;;;16.90;99.90;;;;;;5093208;28;19916;-75
2021/12/27 11:31:14;;;;;;;;;;;16.80;99.90;;;;;;5093172;28;20020;-75
2021/12/27 11:33:54;;;;;;;;;;;16.80;99.90;;;;;;5093108;28;19935;-75
2021/12/27 11:36:22;;;;;;;;;;;16.90;99.90;;;;;;5093291;28;19916;-75
2021/12/27 11:38:49;;;;;;;;;;;17.00;99.90;;;;;;5092759;28;20286;-75
2021/12/27 11:41:24;;;;;;;;;;;16.90;99.90;;;;;;5092504;28;19908;-75
2021/12/27 11:43:55;;;;;;;;;;;17.00;99.90;;;;;;5092991;28;19935;-75
2021/12/27 11:46:23;;;;;;;;;;;17.00;99.90;;;;;;5092991;28;19919;-75
2021/12/27 11:48:54;;;;;;;;;;;16.90;99.90;;;;;;5092793;28;19913;-75
2021/12/27 11:51:35;;;;;;;;;;;16.90;99.90;;;;;;5093108;28;20269;-75
2021/12/27 11:54:03;;;;;;;;;;;16.80;99.90;;;;;;5092752;28;20423;-75
2021/12/27 11:56:39;;;;;;;;;;;16.90;99.90;;;;;;5092546;28;19912;-74
2021/12/27 11:59:37;;;;;;;;;;;16.80;99.90;;;;;;5092895;28;19938;-74
2021/12/27 12:02:16;;;;;;;;;;;16.70;99.90;;;;;;5088387;28;19997;-74
2021/12/27 12:04:44;;;;;;;;;;;16.70;99.90;;;;;;5092316;28;19948;-75
2021/12/27 12:07:11;;;;;;;;;;;16.80;99.90;;;;;;5092626;28;19914;-75
2021/12/27 12:09:47;;;;;;;;;;;16.70;99.90;;;;;;5092080;28;19973;-75
2021/12/27 12:12:15;;;;;;;;;;;16.60;99.90;;;;;;5092601;28;19999;-75
2021/12/27 12:14:42;;;;;;;;;;;16.70;99.90;;;;;;5092224;28;19923;-75
2021/12/27 12:17:16;;;;;;;;;;;16.80;99.90;;;;;;5092233;28;20427;-75
2021/12/27 12:19:43;;;;;;;;;;;16.70;99.90;;;;;;5092085;28;19908;-75
2021/12/27 12:22:29;;;;;;;;;;;16.70;99.90;;;;;;5092202;28;19908;-75
2021/12/27 12:25:10;;;;;;;;;;;16.80;99.90;;;;;;5088204;28;20671;-75
2021/12/27 12:27:36;;;;;;;;;;;16.70;99.90;;;;;;5092541;28;20021;-75
2021/12/27 12:30:03;;;;;;;;;;;16.60;99.90;;;;;;5091962;28;19916;-75
2021/12/27 12:32:30;;;;;;;;;;;16.70;99.90;;;;;;5091781;28;20267;-75
2021/12/27 12:34:58;;;;;;;;;;;16.70;99.90;;;;;;5092231;28;19912;-75
2021/12/27 12:37:24;;;;;;;;;;;16.70;99.90;;;;;;5092118;28;19908;-75
2021/12/27 12:39:52;;;;;;;;;;;16.70;99.90;;;;;;5091790;28;20365;-75
2021/12/27 12:42:21;;;;;;;;;;;16.60;99.90;;;;;;5092007;28;20562;-74
2021/12/27 12:44:48;;;;;;;;;;;16.60;99.90;;;;;;5091592;28;19912;-74
2021/12/27 12:47:15;;;;;;;;;;;16.60;99.90;;;;;;5091836;28;19912;-75
2021/12/27 12:49:42;;;;;;;;;;;16.60;99.90;;;;;;5092003;28;19923;-75
2021/12/27 12:52:10;;;;;;;;;;;16.50;99.90;;;;;;5091693;28;19969;-75
2021/12/27 12:54:39;;;;;;;;;;;16.50;99.90;;;;;;5091701;28;20433;-74
2021/12/27 12:57:16;;;;;;;;;;;16.50;99.90;;;;;;5091286;28;20003;-74
2021/12/27 12:59:45;;;;;;;;;;;16.50;99.90;;;;;;5091773;28;19965;-74
2021/12/27 13:02:14;;;;;;;;;;;16.50;99.90;;;;;;5091564;28;19958;-74
2021/12/27 13:04:48;;;;;;;;;;;16.50;99.90;;;;;;5091446;28;19909;-74
2021/12/27 13:07:17;;;;;;;;;;;16.50;99.90;;;;;;5091786;28;19912;-74
2021/12/27 13:09:44;;;;;;;;;;;16.60;99.90;;;;;;5091208;28;19970;-74
2021/12/27 13:12:11;;;;;;;;;;;16.60;99.90;;;;;;5090927;28;20013;-74
2021/12/27 13:14:38;;;;;;;;;;;16.60;99.90;;;;;;5091233;28;19920;-74
2021/12/27 13:17:37;;;;;;;;;;;16.60;99.90;;;;;;5091178;28;19999;-74
2021/12/27 13:20:04;;;;;;;;;;;16.60;99.90;;;;;;5078042;28;20375;-74
2021/12/27 13:22:45;;;;;;;;;;;16.60;99.90;;;;;;5091181;28;19920;-74
2021/12/27 13:25:13;;;;;;;;;;;16.70;99.90;;;;;;5091127;28;19912;-74
2021/12/27 13:27:40;;;;;;;;;;;16.70;99.90;;;;;;5090873;28;20376;-74
2021/12/27 13:30:07;;;;;;;;;;;16.60;99.90;;;;;;5090836;28;19924;-74
2021/12/27 13:32:34;;;;;;;;;;;16.60;99.90;;;;;;5090932;28;20006;-73
2021/12/27 13:35:01;;;;;;;;;;;16.60;99.90;;;;;;5090898;28;19925;-74
2021/12/27 13:37:28;;;;;;;;;;;16.50;99.90;;;;;;5090563;28;20263;-73
2021/12/27 13:40:09;;;;;;;;;;;16.40;99.90;;;;;;5090703;28;20502;-73
2021/12/27 13:42:36;;;;;;;;;;;16.40;99.90;;;;;;5090970;28;19908;-73
2021/12/27 13:45:10;;;;;;;;;;;16.30;99.90;;;;;;5091039;28;19908;-74
2021/12/27 13:47:37;;;;;;;;;;;16.20;99.90;;;;;;5090870;28;20376;-73
2021/12/27 13:50:04;;;;;;;;;;;16.20;99.90;;;;;;5090318;28;19920;-74
2021/12/27 13:52:42;;;;;;;;;;;16.30;99.90;;;;;;5090855;28;20313;-74
2021/12/27 13:55:09;;;;;;;;;;;16.30;99.90;;;;;;5090931;28;20339;-73
2021/12/27 13:57:40;;;;;;;;;;;16.40;99.90;;;;;;5090961;28;19915;-73
2021/12/27 14:00:07;;;;;;;;;;;16.50;99.90;;;;;;5090569;28;19974;-73
2021/12/27 14:02:38;;;;;;;;;;;16.50;99.90;;;;;;5090342;28;20336;-73
2021/12/27 14:05:07;;;;;;;;;;;16.60;99.90;;;;;;5090676;28;20003;-73
2021/12/27 14:07:34;;;;;;;;;;;16.60;99.90;;;;;;5090711;28;19908;-73
2021/12/27 14:10:00;;;;;;;;;;;16.70;99.90;;;;;;5090245;28;20032;-73
2021/12/27 14:12:30;;;;;;;;;;;16.70;99.90;;;;;;5090654;28;19995;-73
2021/12/27 14:15:04;;;;;;;;;;;16.80;99.90;;;;;;5090808;28;19908;-73
2021/12/27 14:17:33;;;;;;;;;;;16.80;99.90;;;;;;5090195;28;19966;-74
2021/12/27 14:20:12;;;;;;;;;;;16.90;99.90;;;;;;5090381;28;20010;-73
2021/12/27 14:22:40;;;;;;;;;;;16.80;99.90;;;;;;5090514;28;20010;-73
2021/12/27 14:25:07;;;;;;;;;;;16.70;99.90;;;;;;5090647;28;20524;-73
2021/12/27 14:27:34;;;;;;;;;;;16.70;99.90;;;;;;5090491;28;19912;-73